Time;durP1;ratioP1;P1;durP2;ratioP2;P2;SDS_P1;SDS_P2;PMS_P1;PMS_P2;Temp;Humidity;BMP_temperature;BMP_pressure;BME280_temperature;BME280_humidity;BME280_pressure;Samples;Min_cycle;Max_cycle;Signal;HPM_P1;HPM_P2
2023/08/14 00:00:30;;;;;;;1.85;1.23;;;;;;;23.24;85.95;95834.75;6302669;22;20176;-90
2023/08/14 00:02:58;;;;;;;1.10;1.02;;;;;;;23.27;86.10;95851.84;6302103;22;20172;-90
2023/08/14 00:05:24;;;;;;;1.45;1.35;;;;;;;23.35;86.16;95854.00;6303232;22;20171;-90
2023/08/14 00:07:50;;;;;;;1.25;1.10;;;;;;;23.45;85.00;95821.78;6304868;22;20803;-92
2023/08/14 00:10:19;;;;;;;1.40;1.30;;;;;;;23.43;84.78;95819.38;6306005;22;20206;-90
2023/08/14 00:12:46;;;;;;;1.30;1.20;;;;;;;23.43;85.52;95832.53;6303486;22;20198;-90
2023/08/14 00:15:12;;;;;;;1.77;1.17;;;;;;;23.48;85.00;95816.78;6305631;22;20178;-92
2023/08/14 00:17:39;;;;;;;2.03;1.20;;;;;;;23.51;84.24;95803.13;6303022;22;20255;-92
2023/08/14 00:20:08;;;;;;;1.20;1.10;;;;;;;23.45;84.60;95793.66;6304275;22;20526;-90
2023/08/14 00:22:39;;;;;;;5.15;4.18;;;;;;;23.47;84.90;95802.06;6304221;22;20175;-90
2023/08/14 00:25:06;;;;;;;4.25;2.72;;;;;;;23.36;85.84;95808.28;6304337;22;20165;-90
2023/08/14 00:27:33;;;;;;;6.25;5.63;;;;;;;23.32;86.24;95801.94;6305206;22;20188;-91
2023/08/14 00:29:59;;;;;;;5.55;4.82;;;;;;;23.31;86.29;95800.34;6303645;22;20181;-91
2023/08/14 00:32:28;;;;;;;2.72;2.53;;;;;;;23.38;85.74;95799.09;6302868;22;20179;-90
2023/08/14 00:34:55;;;;;;;6.55;5.28;;;;;;;23.30;86.00;95786.41;6302960;22;20242;-91
2023/08/14 00:37:23;;;;;;;3.75;3.15;;;;;;;23.19;86.55;95790.03;6303944;22;20697;-92
2023/08/14 00:39:50;;;;;;;5.35;4.63;;;;;;;23.21;86.55;95790.56;6304356;22;20175;-90
2023/08/14 00:42:16;;;;;;;3.75;3.30;;;;;;;23.22;86.61;95799.25;6310040;22;20193;-93
2023/08/14 00:44:43;;;;;;;3.50;3.20;;;;;;;23.23;86.50;95798.19;6305572;22;20187;-91
2023/08/14 00:47:10;;;;;;;1.80;1.70;;;;;;;23.23;86.82;95804.25;6304572;22;20246;-92
2023/08/14 00:49:36;;;;;;;2.72;2.08;;;;;;;23.24;86.61;95800.59;6305775;22;20528;-93
2023/08/14 00:52:03;;;;;;;2.47;1.70;;;;;;;23.32;85.98;95788.81;6304580;22;20163;-93
2023/08/14 00:54:31;;;;;;;2.05;1.58;;;;;;;23.38;86.23;95785.19;6305884;22;20223;-91
2023/08/14 00:57:00;;;;;;;2.33;2.00;;;;;;;23.35;86.55;95794.34;6305802;22;20418;-90
2023/08/14 00:59:26;;;;;;;2.50;1.70;;;;;;;23.29;87.26;95797.97;6306554;22;20538;-93
2023/08/14 01:01:53;;;;;;;2.95;2.00;;;;;;;23.29;86.82;95792.72;6303704;22;20245;-93
2023/08/14 01:04:20;;;;;;;2.05;1.85;;;;;;;23.34;86.30;95792.75;6308792;22;20230;-92
2023/08/14 01:06:48;;;;;;;1.63;1.50;;;;;;;23.36;85.72;95779.38;6307652;22;20513;-94
2023/08/14 01:09:15;;;;;;;1.73;1.60;;;;;;;23.18;87.25;95788.44;6306508;22;20190;-90
2023/08/14 01:11:57;;;;;;;4.22;1.48;;;;;;;23.23;87.14;95796.38;6307301;22;20179;-92
2023/08/14 01:14:32;;;;;;;1.60;1.50;;;;;;;23.29;86.79;95784.84;6307321;22;20155;-90
2023/08/14 01:17:06;;;;;;;1.60;1.50;;;;;;;23.25;86.89;95785.63;6307083;22;20667;-91
2023/08/14 01:19:35;;;;;;;1.70;1.60;;;;;;;23.24;87.36;95789.28;6305574;22;20195;-93
2023/08/14 01:22:05;;;;;;;2.45;2.25;;;;;;;23.16;87.57;95795.78;6305950;22;20486;-92
2023/08/14 01:24:46;;;;;;;1.90;1.63;;;;;;;23.19;87.56;95789.22;6304972;22;20168;-92
2023/08/14 01:27:14;;;;;;;2.10;1.90;;;;;;;23.16;88.08;95785.25;6305855;22;20166;-92
2023/08/14 01:29:41;;;;;;;2.33;1.73;;;;;;;22.90;89.53;95809.75;6305671;22;20172;-91
2023/08/14 01:32:08;;;;;;;1.85;1.75;;;;;;;22.90;89.69;95807.88;6305851;22;20178;-92
2023/08/14 01:34:34;;;;;;;1.80;1.60;;;;;;;22.87;89.62;95797.09;6305341;22;20259;-90
2023/08/14 01:37:13;;;;;;;1.67;1.40;;;;;;;22.90;88.92;95793.97;6304664;22;20199;-92
2023/08/14 01:39:45;;;;;;;2.30;1.60;;;;;;;22.89;88.53;95785.31;6304656;22;20166;-90
2023/08/14 01:42:23;;;;;;;1.73;1.50;;;;;;;22.86;89.17;95798.13;6306567;22;20160;-93
2023/08/14 01:44:53;;;;;;;1.60;1.50;;;;;;;22.87;89.09;95789.22;6306397;22;20175;-92
2023/08/14 01:47:21;;;;;;;1.75;1.50;;;;;;;22.85;89.37;95807.06;6306588;22;20194;-92
2023/08/14 01:49:49;;;;;;;2.50;1.40;;;;;;;22.92;89.26;95795.28;6306570;22;20213;-92
2023/08/14 01:52:16;;;;;;;3.58;1.90;;;;;;;22.92;88.87;95797.13;6304940;22;20254;-92
2023/08/14 01:54:42;;;;;;;3.17;1.48;;;;;;;22.90;89.19;95807.13;6304067;22;20171;-92
2023/08/14 01:57:09;;;;;;;1.80;1.70;;;;;;;22.93;89.09;95799.50;6304028;22;20192;-92
2023/08/14 01:59:42;;;;;;;1.83;1.50;;;;;;;22.97;88.15;95790.09;6304440;22;20266;-90
2023/08/14 02:02:12;;;;;;;2.42;1.70;;;;;;;22.92;87.86;95771.66;6304034;22;20162;-93
2023/08/14 02:04:39;;;;;;;2.50;1.50;;;;;;;22.85;87.92;95776.34;6304784;22;20182;-90
2023/08/14 02:07:10;;;;;;;2.40;1.60;;;;;;;22.87;88.03;95781.34;6307444;22;20172;-93
2023/08/14 02:09:37;;;;;;;1.45;1.20;;;;;;;22.90;87.74;95781.63;6306601;22;20199;-90
2023/08/14 02:12:04;;;;;;;1.38;1.27;;;;;;;22.89;87.81;95787.94;6307076;22;20227;-92
2023/08/14 02:14:31;;;;;;;2.50;1.40;;;;;;;22.86;87.68;95782.38;6306042;22;20174;-93
2023/08/14 02:16:59;;;;;;;2.85;1.52;;;;;;;22.82;87.05;95783.91;6305612;22;20223;-91
2023/08/14 02:19:26;;;;;;;5.57;1.50;;;;;;;22.81;87.20;95784.97;6302977;22;20792;-90
2023/08/14 02:21:52;;;;;;;1.65;1.50;;;;;;;22.67;88.68;95805.53;6304225;22;20207;-92
2023/08/14 02:24:19;;;;;;;3.08;1.60;;;;;;;22.60;88.83;95808.34;6304779;22;20178;-93
2023/08/14 02:26:47;;;;;;;4.10;1.77;;;;;;;22.43;89.77;95826.00;6304791;22;20168;-91
2023/08/14 02:29:13;;;;;;;1.58;1.48;;;;;;;22.28;91.23;95847.59;6304184;22;20192;-92
2023/08/14 02:31:45;;;;;;;1.50;1.30;;;;;;;22.32;91.45;95850.53;6306128;22;20250;-92
2023/08/14 02:34:31;;;;;;;5.25;1.38;;;;;;;22.36;91.46;95852.41;6305409;22;20194;-93
2023/08/14 02:36:57;;;;;;;1.70;1.33;;;;;;;22.50;91.06;95842.38;6305631;22;20194;-91
2023/08/14 02:39:24;;;;;;;1.70;1.60;;;;;;;22.54;90.51;95832.94;6306106;22;20192;-92
2023/08/14 02:41:50;;;;;;;1.88;1.52;;;;;;;22.60;89.94;95831.19;6304968;22;20263;-90
2023/08/14 02:44:17;;;;;;;1.95;1.30;;;;;;;22.60;89.78;95837.22;6306402;22;20175;-91
2023/08/14 02:46:43;;;;;;;2.55;1.40;;;;;;;22.50;90.42;95842.38;6305865;22;20178;-90
2023/08/14 02:49:10;;;;;;;1.40;1.30;;;;;;;22.42;91.05;95847.22;6304944;22;20205;-91
2023/08/14 02:51:38;;;;;;;1.98;1.30;;;;;;;22.23;91.96;95863.28;6303448;22;20513;-93
2023/08/14 02:54:05;;;;;;;4.10;1.38;;;;;;;22.33;92.24;95883.59;6304923;22;20217;-92
2023/08/14 02:56:31;;;;;;;1.38;1.27;;;;;;;22.45;91.54;95873.00;6304657;22;20250;-92
2023/08/14 02:59:00;;;;;;;1.67;1.20;;;;;;;22.45;91.18;95860.66;6303870;22;20196;-92
2023/08/14 03:01:27;;;;;;;1.33;1.20;;;;;;;22.53;90.31;95843.69;6305211;22;20246;-92
2023/08/14 03:03:53;;;;;;;3.42;1.52;;;;;;;22.54;89.82;95855.75;6305951;22;20198;-91
2023/08/14 03:06:20;;;;;;;2.75;1.40;;;;;;;22.56;90.28;95861.56;6304932;22;20175;-90
2023/08/14 03:08:49;;;;;;;2.58;1.70;;;;;;;22.59;90.27;95855.84;6304378;22;20940;-90
2023/08/14 03:11:16;;;;;;;1.60;1.50;;;;;;;22.56;90.41;95851.06;6305334;22;20186;-92
2023/08/14 03:13:42;;;;;;;2.85;2.00;;;;;;;22.47;90.50;95852.56;6305600;22;20179;-92
2023/08/14 03:16:12;;;;;;;3.67;1.70;;;;;;;22.43;91.02;95854.88;6304482;22;20171;-91
2023/08/14 03:18:39;;;;;;;1.90;1.80;;;;;;;22.41;90.75;95851.69;6303786;22;20569;-90
2023/08/14 03:21:05;;;;;;;1.70;1.60;;;;;;;22.45;90.79;95854.63;6304576;22;20176;-91
2023/08/14 03:23:32;;;;;;;2.10;1.65;;;;;;;22.46;90.70;95838.63;6305532;22;20174;-93
2023/08/14 03:26:00;;;;;;;3.53;1.67;;;;;;;22.53;90.09;95823.47;6304566;22;20172;-92
2023/08/14 03:28:26;;;;;;;1.80;1.60;;;;;;;22.55;90.14;95816.16;6305789;22;20187;-94
2023/08/14 03:30:53;;;;;;;1.90;1.70;;;;;;;22.57;89.43;95811.47;6305020;22;20174;-90
2023/08/14 03:33:19;;;;;;;1.88;1.67;;;;;;;22.62;89.56;95813.34;6304943;22;20206;-90
2023/08/14 03:35:46;;;;;;;2.05;1.80;;;;;;;22.64;89.08;95808.66;6306165;22;20171;-93
2023/08/14 03:38:13;;;;;;;2.08;1.98;;;;;;;22.32;91.44;95819.06;6304923;22;20202;-92
2023/08/14 03:40:39;;;;;;;2.10;1.92;;;;;;;22.06;93.66;95844.16;6304854;22;20250;-92
2023/08/14 03:43:07;;;;;;;2.10;1.90;;;;;;;21.99;94.42;95862.66;6304682;22;20171;-91
2023/08/14 03:45:34;;;;;;;3.20;2.00;;;;;;;22.13;94.25;95867.59;6303599;22;20183;-92
2023/08/14 03:48:00;;;;;;;1.90;1.80;;;;;;;22.17;93.71;95863.44;6305104;22;20188;-92
2023/08/14 03:50:33;;;;;;;2.40;2.20;;;;;;;22.10;94.14;95857.59;6305250;22;20221;-92
2023/08/14 03:53:00;;;;;;;2.88;1.90;;;;;;;22.08;94.43;95859.66;6304975;22;20152;-90
2023/08/14 03:55:26;;;;;;;2.10;1.85;;;;;;;22.01;94.74;95865.84;6304018;22;20173;-92
2023/08/14 03:57:54;;;;;;;2.20;1.90;;;;;;;22.10;94.50;95873.31;6303648;22;20199;-92
2023/08/14 04:00:22;;;;;;;2.85;2.00;;;;;;;22.21;93.81;95862.72;6304321;22;20196;-91
2023/08/14 04:02:49;;;;;;;4.05;1.88;;;;;;;22.31;93.01;95844.50;6305197;22;20180;-91
2023/08/14 04:05:17;;;;;;;2.20;2.00;;;;;;;22.30;92.72;95829.78;6306448;22;20167;-88
2023/08/14 04:07:44;;;;;;;2.78;1.80;;;;;;;22.35;92.63;95829.84;6303146;22;20194;-92
2023/08/14 04:10:10;;;;;;;2.17;1.98;;;;;;;22.36;92.43;95828.00;6303474;22;20171;-93
2023/08/14 04:12:37;;;;;;;2.22;2.05;;;;;;;22.32;92.27;95830.31;6302784;22;20171;-91
2023/08/14 04:15:13;;;;;;;7.85;1.90;;;;;;;22.23;92.97;95834.41;6303298;22;20207;-92
2023/08/14 04:17:41;;;;;;;1.80;1.70;;;;;;;22.21;93.60;95843.56;6301695;22;20215;-90
2023/08/14 04:20:12;;;;;;;2.08;1.88;;;;;;;22.23;93.33;95842.28;6301619;22;20186;-91
2023/08/14 04:22:38;;;;;;;3.28;1.83;;;;;;;22.18;93.32;95836.16;6302262;22;20160;-88
2023/08/14 04:25:06;;;;;;;2.25;2.05;;;;;;;22.11;93.92;95844.25;6302650;22;20505;-90
2023/08/14 04:27:32;;;;;;;2.17;2.00;;;;;;;22.07;94.54;95847.56;6300116;22;20347;-87
2023/08/14 04:29:59;;;;;;;1.80;1.70;;;;;;;22.01;94.93;95847.50;6302267;22;20164;-90
2023/08/14 04:32:28;;;;;;;3.90;1.90;;;;;;;21.98;95.01;95857.63;6302816;22;20178;-90
2023/08/14 04:34:56;;;;;;;2.15;1.95;;;;;;;21.99;94.88;95849.53;6301095;22;20646;-88
2023/08/14 04:37:23;;;;;;;2.42;2.03;;;;;;;21.97;94.27;95851.59;6303058;22;20222;-89
2023/08/14 04:39:49;;;;;;;2.38;1.80;;;;;;;21.98;94.41;95841.91;6304800;22;20179;-89
2023/08/14 04:42:16;;;;;;;2.15;2.00;;;;;;;22.09;93.79;95848.94;6302127;22;20258;-88
2023/08/14 04:44:42;;;;;;;1.80;1.70;;;;;;;22.12;93.87;95840.56;6303358;22;20172;-89
2023/08/14 04:47:14;;;;;;;1.83;1.70;;;;;;;22.28;92.62;95823.19;6303850;22;20682;-90
2023/08/14 04:49:41;;;;;;;2.13;1.92;;;;;;;22.38;90.94;95810.19;6303707;22;20195;-90
2023/08/14 04:52:09;;;;;;;1.67;1.58;;;;;;;22.40;89.81;95793.16;6304394;22;20171;-90
2023/08/14 04:54:35;;;;;;;1.90;1.75;;;;;;;22.45;88.79;95784.56;6304348;22;20182;-90
2023/08/14 04:59:50;;;;;;;1.88;1.45;;;;;;;22.66;87.28;95775.06;6300460;22;20183;-89
2023/08/14 05:02:17;;;;;;;1.65;1.55;;;;;;;22.74;86.31;95764.91;6303318;22;20607;-90
2023/08/14 05:04:55;;;;;;;2.38;1.73;;;;;;;22.85;86.17;95784.22;6304460;22;20171;-90
2023/08/14 05:07:26;;;;;;;1.92;1.80;;;;;;;22.85;87.25;95807.84;6291904;22;20160;-90
2023/08/14 05:10:00;;;;;;;2.15;1.60;;;;;;;22.88;88.82;95856.47;6305213;22;20179;-90
2023/08/14 05:12:36;;;;;;;1.83;1.73;;;;;;;22.77;90.27;95868.66;6307563;22;20166;-91
2023/08/14 05:15:04;;;;;;;2.10;1.92;;;;;;;22.79;90.37;95876.31;6315338;22;20606;-91
2023/08/14 05:20:16;;;;;;;3.08;1.85;;;;;;;22.79;91.60;95886.81;6293476;22;20198;-89
2023/08/14 05:22:45;;;;;;;3.35;2.00;;;;;;;22.71;91.35;95882.75;6302859;22;20160;-90
2023/08/14 05:25:12;;;;;;;5.63;2.53;;;;;;;22.66;92.94;95922.06;6302600;22;20210;-88
2023/08/14 05:27:39;;;;;;;3.05;2.00;;;;;;;22.58;93.03;95919.88;6303958;22;20203;-87
2023/08/14 05:30:34;;;;;;;3.60;2.15;;;;;;;22.70;92.95;95912.69;6304232;22;20171;-87
2023/08/14 05:33:01;;;;;;;3.40;2.15;;;;;;;22.55;92.83;95905.38;6303864;22;20231;-89
2023/08/14 05:35:29;;;;;;;3.40;1.70;;;;;;;22.47;93.99;95923.41;6303375;22;20175;-89
2023/08/14 05:38:02;;;;;;;1.77;1.67;;;;;;;22.49;92.81;95926.59;6302926;22;20195;-89
2023/08/14 05:40:31;;;;;;;1.83;1.73;;;;;;;22.42;92.63;95911.00;6303260;22;20159;-88
2023/08/14 05:43:18;;;;;;;3.85;2.10;;;;;;;22.55;93.16;95929.00;6303521;22;20206;-88
2023/08/14 05:45:46;;;;;;;3.13;2.00;;;;;;;22.69;92.52;95937.34;6295450;22;20713;-87
2023/08/14 05:48:14;;;;;;;1.80;1.60;;;;;;;22.74;92.72;95932.13;6302914;22;20192;-87
2023/08/14 05:50:41;;;;;;;2.30;1.95;;;;;;;22.88;91.82;95916.84;6298807;22;20179;-87
2023/08/14 05:53:09;;;;;;;2.10;1.73;;;;;;;22.97;91.66;95913.53;6278951;22;20175;-87
2023/08/14 05:55:39;;;;;;;2.22;2.03;;;;;;;23.04;90.86;95901.03;6301124;22;20171;-87
2023/08/14 05:58:07;;;;;;;2.28;2.08;;;;;;;22.97;90.82;95892.53;6301281;22;20210;-87
2023/08/14 06:00:37;;;;;;;1.80;1.70;;;;;;;23.07;90.83;95887.41;6300654;22;20488;-87
2023/08/14 06:03:04;;;;;;;2.53;1.90;;;;;;;23.22;89.12;95875.44;6301343;22;20574;-87
2023/08/14 06:05:51;;;;;;;3.35;1.75;;;;;;;23.31;88.65;95866.03;6301578;22;20246;-88
2023/08/14 06:08:22;;;;;;;2.17;2.00;;;;;;;23.39;88.33;95863.78;6286661;22;20191;-87
2023/08/14 06:10:48;;;;;;;3.47;1.80;;;;;;;23.42;88.02;95849.34;6301945;22;20172;-88
2023/08/14 06:13:21;;;;;;;2.75;2.03;;;;;;;23.46;87.86;95849.63;6301620;22;20499;-86
2023/08/14 06:15:47;;;;;;;2.70;1.80;;;;;;;23.43;87.55;95833.31;6300470;22;20171;-87
2023/08/14 06:18:14;;;;;;;2.40;2.20;;;;;;;23.22;88.63;95841.28;6300752;22;20199;-87
2023/08/14 06:20:42;;;;;;;3.33;1.70;;;;;;;23.23;89.27;95848.91;6302931;22;20190;-87
2023/08/14 06:23:09;;;;;;;2.53;1.80;;;;;;;23.28;88.29;95840.28;6303510;22;20262;-87
2023/08/14 06:25:39;;;;;;;2.40;1.70;;;;;;;23.38;85.78;95803.56;6303469;22;20179;-87
2023/08/14 06:28:06;;;;;;;1.80;1.70;;;;;;;23.40;84.48;95778.63;6302417;22;20200;-87
2023/08/14 06:30:33;;;;;;;2.08;1.90;;;;;;;23.40;84.80;95783.88;6302579;22;20504;-88
2023/08/14 06:33:00;;;;;;;1.98;1.77;;;;;;;23.46;84.68;95787.34;6302725;22;20198;-87
2023/08/14 06:35:26;;;;;;;4.45;1.83;;;;;;;23.51;85.94;95799.72;6302536;22;20233;-87
2023/08/14 06:37:53;;;;;;;2.22;1.88;;;;;;;23.65;84.24;95770.16;6301922;22;20202;-87
2023/08/14 06:40:30;;;;;;;2.78;2.03;;;;;;;23.69;81.89;95728.34;6302871;22;20178;-87
2023/08/14 06:42:58;;;;;;;1.98;1.77;;;;;;;23.71;82.09;95732.31;6301821;22;20166;-86
2023/08/14 06:45:24;;;;;;;1.85;1.65;;;;;;;23.82;81.29;95724.50;6301626;22;20186;-90
2023/08/14 06:47:51;;;;;;;1.98;1.80;;;;;;;23.97;79.98;95683.25;6302585;22;20714;-87
2023/08/14 06:50:17;;;;;;;5.57;1.80;;;;;;;24.09;79.02;95665.38;6302995;22;20172;-88
2023/08/14 06:52:44;;;;;;;2.05;1.73;;;;;;;24.20;79.05;95668.84;6302506;22;20175;-88
2023/08/14 06:55:10;;;;;;;2.38;1.83;;;;;;;24.16;77.47;95638.84;6302164;22;20182;-88
2023/08/14 06:57:42;;;;;;;3.60;1.95;;;;;;;24.20;77.82;95637.28;6280188;22;20812;-89
2023/08/14 07:00:13;;;;;;;3.63;2.15;;;;;;;24.35;77.53;95633.91;6299976;22;20168;-89
2023/08/14 07:02:43;;;;;;;1.70;1.60;;;;;;;24.42;76.18;95603.66;6300208;22;20156;-89
2023/08/14 07:05:11;;;;;;;2.65;2.10;;;;;;;24.47;76.45;95594.94;6300825;22;20171;-90
2023/08/14 07:07:50;;;;;;;2.35;1.70;;;;;;;24.55;74.45;95567.31;6300978;22;20203;-85
2023/08/14 07:10:25;;;;;;;2.08;1.83;;;;;;;24.70;74.62;95564.66;6299994;22;20172;-87
2023/08/14 07:12:52;;;;;;;2.20;1.98;;;;;;;24.90;74.97;95577.78;6303453;22;20179;-88
2023/08/14 07:15:34;;;;;;;2.28;1.83;;;;;;;25.04;72.21;95514.81;6302712;22;20176;-89
2023/08/14 07:18:04;;;;;;;2.38;2.17;;;;;;;25.29;70.33;95472.53;6304281;22;20686;-86
2023/08/14 07:20:36;;;;;;;2.90;1.92;;;;;;;25.42;70.94;95484.31;6305998;22;20183;-86
2023/08/14 07:23:06;;;;;;;1.85;1.75;;;;;;;25.57;70.02;95470.28;6308515;22;20163;-87
2023/08/14 07:25:32;;;;;;;2.17;1.70;;;;;;;25.69;69.21;95431.97;6302360;22;20172;-88
2023/08/14 07:30:57;;;;;;;2.67;1.83;;;;;;;25.91;66.29;95354.25;6300192;22;20171;-90
2023/08/14 07:33:24;;;;;;;3.58;1.90;;;;;;;26.01;66.04;95360.22;6301508;22;20175;-89
2023/08/14 07:36:07;;;;;;;1.77;1.67;;;;;;;26.09;65.97;95345.63;6301697;22;20178;-87
2023/08/14 07:38:42;;;;;;;2.08;1.80;;;;;;;26.20;65.25;95333.09;6302461;22;20222;-89
2023/08/14 07:41:08;;;;;;;2.83;1.73;;;;;;;26.31;64.24;95295.78;6283868;22;20167;-89
2023/08/14 07:43:35;;;;;;;2.08;1.90;;;;;;;26.44;63.97;95271.31;6293439;22;20175;-87
2023/08/14 07:46:09;;;;;;;2.75;2.13;;;;;;;26.58;62.45;95231.00;6300232;22;20262;-87
2023/08/14 07:48:38;;;;;;;1.88;1.77;;;;;;;26.72;62.94;95247.72;6283225;22;20226;-87
2023/08/14 07:51:05;;;;;;;2.00;1.80;;;;;;;26.76;63.00;95253.97;6270241;22;20211;-89
2023/08/14 07:53:32;;;;;;;2.90;2.08;;;;;;;26.96;62.25;95235.22;6269316;22;20176;-89
2023/08/14 07:58:46;;;;;;;1.90;1.58;;;;;;;27.05;59.16;95133.06;6281387;22;20241;-88
2023/08/14 08:01:32;;;;;;;;;;;;;;;;;;;;;
2023/08/14 08:04:02;;;;;;;1.88;1.77;;;;;;;26.71;60.55;95180.91;6299304;22;20194;-89
2023/08/14 08:09:19;;;;;;;3.08;1.88;;;;;;;26.91;61.68;95210.72;6296490;22;20321;-87
2023/08/14 08:11:46;;;;;;;2.00;1.90;;;;;;;27.02;60.64;95191.78;6302120;22;20182;-88
2023/08/14 08:14:15;;;;;;;3.92;2.03;;;;;;;27.26;59.18;95151.22;6300523;22;20167;-89
2023/08/14 08:17:03;;;;;;;3.83;2.00;;;;;;;27.44;58.08;95097.47;6300594;22;20512;-91
2023/08/14 08:19:31;;;;;;;2.42;1.70;;;;;;;27.65;57.97;95074.06;6282898;22;20278;-89
2023/08/14 08:21:58;;;;;;;1.83;1.73;;;;;;;28.01;58.00;95097.91;6300226;22;20167;-88
2023/08/14 08:24:31;;;;;;;2.75;2.10;;;;;;;28.24;57.09;95070.41;6301035;22;20181;-90
2023/08/14 08:26:57;;;;;;;2.75;1.88;;;;;;;28.35;56.84;95037.28;6301899;22;20162;-89
2023/08/14 08:29:24;;;;;;;2.55;2.05;;;;;;;28.33;57.37;95081.03;6300690;22;20191;-89
2023/08/14 08:31:50;;;;;;;3.65;2.08;;;;;;;28.22;56.94;95035.50;6300396;22;20179;-88
2023/08/14 08:34:40;;;;;;;4.13;2.10;;;;;;;27.75;57.61;95055.31;6300730;22;20172;-88
2023/08/14 08:37:09;;;;;;;2.38;2.00;;;;;;;27.57;57.43;95035.84;6300214;22;20198;-90
2023/08/14 08:39:38;;;;;;;2.45;2.25;;;;;;;27.51;58.25;95074.84;6299508;22;20207;-89
2023/08/14 08:42:48;;;;;;;2.40;2.10;;;;;;;27.56;58.32;95076.56;6300724;22;20221;-89
2023/08/14 08:45:19;;;;;;;5.38;2.28;;;;;;;27.52;57.40;95039.34;6173271;23;20253;-91
2023/08/14 08:47:49;;;;;;;1.95;1.73;;;;;;;27.52;57.35;95046.50;6203436;22;20195;-89
2023/08/14 08:50:35;;;;;;;2.85;1.85;;;;;;;27.55;57.95;95056.50;6300648;22;20672;-89
2023/08/14 08:53:04;;;;;;;2.53;2.00;;;;;;;27.44;57.03;95026.06;6300678;22;20160;-89
2023/08/14 08:55:55;;;;;;;2.10;1.83;;;;;;;27.44;57.82;95050.63;6300670;22;20247;-89
2023/08/14 08:58:26;;;;;;;1.90;1.80;;;;;;;27.48;58.07;95075.41;6300765;22;20195;-88
2023/08/14 09:01:13;;;;;;;2.80;2.53;;;;;;;27.44;56.12;95010.97;6300160;22;20171;-89
2023/08/14 09:03:48;;;;;;;2.80;2.60;;;;;;;27.42;57.12;95039.56;6301248;22;20816;-87
2023/08/14 09:06:19;;;;;;;2.67;2.25;;;;;;;27.44;56.61;95032.13;6300175;22;20167;-91
2023/08/14 09:09:07;;;;;;;2.50;2.10;;;;;;;27.29;56.77;95027.16;6299889;22;20196;-87
2023/08/14 09:11:47;;;;;;;2.20;2.00;;;;;;;27.36;56.85;95035.47;6289986;22;20520;-90
2023/08/14 09:17:07;;;;;;;4.93;2.40;;;;;;;27.55;55.73;95008.09;6297890;22;20225;-90
2023/08/14 09:19:33;;;;;;;4.90;2.47;;;;;;;27.66;56.12;95012.13;6299837;22;20206;-89
2023/08/14 09:22:25;;;;;;;2.38;2.15;;;;;;;27.71;55.57;94978.41;6300770;22;20182;-90
2023/08/14 09:25:17;;;;;;;2.08;1.88;;;;;;;27.73;55.48;94964.88;6147621;23;20684;-90
2023/08/14 09:27:44;;;;;;;2.30;2.15;;;;;;;27.88;56.13;95009.53;6147337;23;20179;-90
2023/08/14 09:30:13;;;;;;;2.88;2.60;;;;;;;27.94;54.93;94951.94;6147234;23;20171;-87
2023/08/14 09:32:40;;;;;;;2.60;2.20;;;;;;;28.02;55.30;94965.25;6147445;23;20243;-88
2023/08/14 09:35:26;;;;;;;2.53;2.30;;;;;;;27.99;54.26;94885.66;6173194;22;20647;-87
2023/08/14 09:43:12;;;;;;;2.42;2.22;;;;;;;28.33;54.62;94903.63;6269986;22;20817;-89
2023/08/14 09:45:38;;;;;;;2.33;2.20;;;;;;;28.75;52.39;94804.19;6271812;22;20239;-93
2023/08/14 09:48:07;;;;;;;2.33;2.20;;;;;;;29.19;51.88;94781.94;6271883;22;20199;-91
2023/08/14 09:50:41;;;;;;;3.05;2.20;;;;;;;29.53;51.29;94730.72;6271803;22;20264;-91
2023/08/14 09:56:39;;;;;;;2.70;2.50;;;;;;;30.02;50.12;94672.78;6147161;23;20290;-89
2023/08/14 09:59:20;;;;;;;4.38;2.47;;;;;;;30.06;50.19;94671.78;6271270;22;20210;-88
2023/08/14 10:02:12;;;;;;;2.63;2.17;;;;;;;30.12;49.89;94646.63;6270170;22;20653;-90
2023/08/14 10:04:40;;;;;;;2.88;2.55;;;;;;;30.08;49.67;94648.34;6256610;22;20172;-90
2023/08/14 10:07:14;;;;;;;2.85;2.20;;;;;;;30.26;49.62;94654.31;6270479;22;20795;-89
2023/08/14 10:09:44;;;;;;;5.18;2.45;;;;;;;30.53;48.87;94637.88;6272653;22;20690;-89
2023/08/14 10:12:40;;;;;;;2.35;2.15;;;;;;;30.50;50.02;94656.34;6278031;22;20148;-92
2023/08/14 10:15:15;;;;;;;2.33;2.13;;;;;;;30.57;49.54;94643.34;6284815;22;20232;-93
2023/08/14 10:18:09;;;;;;;2.40;2.20;;;;;;;30.56;48.33;94559.41;6284161;22;20209;-93
2023/08/14 10:20:37;;;;;;;3.33;2.33;;;;;;;30.78;49.75;94646.75;6179278;22;20197;-92
2023/08/14 10:23:04;;;;;;;2.28;2.08;;;;;;;30.66;46.77;94478.50;6280704;22;20168;-94
2023/08/14 10:25:36;;;;;;;2.25;2.10;;;;;;;30.76;45.98;94472.75;6278935;22;20172;-94
2023/08/14 10:28:04;;;;;;;2.40;2.00;;;;;;;31.02;46.39;94485.72;6286705;22;20179;-91
2023/08/14 10:30:53;;;;;;;4.63;2.00;;;;;;;31.24;46.11;94469.34;6283596;22;20663;-95
2023/08/14 10:33:20;;;;;;;2.13;1.90;;;;;;;31.38;45.29;94408.56;6276716;22;20191;-94
2023/08/14 10:35:50;;;;;;;2.25;2.05;;;;;;;31.59;45.68;94445.66;6275068;22;20196;-93
2023/08/14 10:38:21;;;;;;;2.40;2.10;;;;;;;31.61;43.56;94336.97;6287391;22;20583;-92
2023/08/14 10:41:38;;;;;;;2.75;2.00;;;;;;;31.64;43.76;94346.94;6308036;22;20222;-93
2023/08/14 10:44:20;;;;;;;2.88;2.30;;;;;;;31.70;43.26;94340.31;6307850;22;20167;-92
2023/08/14 10:46:47;;;;;;;3.20;2.15;;;;;;;31.73;43.63;94318.34;6302308;22;20183;-89
2023/08/14 10:49:29;;;;;;;2.22;2.03;;;;;;;31.67;42.31;94257.69;6303427;22;20251;-92
2023/08/14 10:52:09;;;;;;;2.47;2.30;;;;;;;31.94;43.10;94318.09;6302269;22;20622;-91
2023/08/14 11:16:26;;;;;;;2.55;2.35;;;;;;;31.89;43.15;94332.44;6279764;22;20186;-91
2023/08/14 11:23:04;;;;;;;2.38;2.17;;;;;;;31.27;44.05;94380.13;6094078;23;20275;-92
2023/08/14 11:25:31;;;;;;;3.08;2.33;;;;;;;31.14;44.49;94414.72;5979398;24;20223;-92
2023/08/14 11:31:37;;;;;;;2.47;2.28;;;;;;;31.59;43.53;94363.94;6263311;22;20207;-93
2023/08/14 13:29:33;;;;;;;;;;;;;;;;;;;;;
2023/08/14 13:41:29;;;;;;;2.25;2.13;;;;;;;33.17;41.81;94279.41;6242075;23;20188;-89
2023/08/14 13:44:14;;;;;;;4.38;2.63;;;;;;;33.18;41.42;94266.84;6241423;23;20177;-92
2023/08/14 13:46:41;;;;;;;2.72;2.42;;;;;;;32.88;42.23;94285.28;6243973;23;20898;-92
2023/08/14 13:49:10;;;;;;;2.83;2.60;;;;;;;32.54;42.68;94340.88;6262458;22;20663;-93
2023/08/14 13:51:37;;;;;;;2.60;2.40;;;;;;;32.36;44.03;94392.97;6274507;22;20176;-90
2023/08/14 13:54:03;;;;;;;4.55;2.95;;;;;;;32.28;44.90;94436.56;6267815;22;20168;-89
2023/08/14 13:56:33;;;;;;;2.60;2.40;;;;;;;32.15;45.98;94513.06;6273185;22;20509;-90
2023/08/14 13:59:00;;;;;;;6.18;2.88;;;;;;;32.20;46.30;94536.81;6272787;22;20230;-88
2023/08/14 14:02:26;;;;;;;3.25;2.70;;;;;;;32.27;47.65;94600.19;6267978;22;20196;-89
2023/08/14 14:04:53;;;;;;;2.40;2.20;;;;;;;32.68;47.26;94582.28;6146562;23;20201;-89
2023/08/14 14:07:20;;;;;;;3.83;2.50;;;;;;;32.81;46.60;94581.13;6185654;22;20173;-89
2023/08/14 14:09:46;;;;;;;2.80;2.20;;;;;;;32.62;47.11;94571.06;6270308;22;20711;-89
2023/08/14 14:12:13;;;;;;;2.70;2.10;;;;;;;32.42;47.69;94586.16;6272337;22;20172;-90
2023/08/14 14:14:39;;;;;;;3.00;2.10;;;;;;;32.53;47.36;94592.53;6271918;22;20183;-91
2023/08/14 14:17:11;;;;;;;3.22;2.50;;;;;;;32.46;46.65;94556.94;6272367;22;20179;-92
2023/08/14 14:19:39;;;;;;;2.63;2.42;;;;;;;32.32;47.38;94556.56;6271778;22;20731;-89
2023/08/14 14:22:32;;;;;;;3.05;2.65;;;;;;;32.14;47.34;94551.47;6271949;22;20206;-91
2023/08/14 14:24:59;;;;;;;3.03;2.22;;;;;;;32.01;46.67;94538.53;6264454;22;20508;-89
2023/08/14 14:27:25;;;;;;;2.60;2.22;;;;;;;32.01;47.37;94559.84;6272489;22;20172;-89
2023/08/14 14:29:54;;;;;;;2.40;2.20;;;;;;;32.06;46.69;94525.75;6271333;22;20270;-90
2023/08/14 14:32:21;;;;;;;4.88;2.60;;;;;;;32.31;46.90;94557.69;6272761;22;20226;-89
2023/08/14 14:34:48;;;;;;;3.42;2.28;;;;;;;32.41;46.67;94525.19;6273065;22;20202;-91
2023/08/14 14:37:15;;;;;;;2.50;2.30;;;;;;;32.69;46.58;94547.28;6272393;22;20504;-89
2023/08/14 14:39:42;;;;;;;2.90;2.50;;;;;;;32.98;46.33;94513.34;6281071;22;20541;-90
2023/08/14 14:42:08;;;;;;;5.22;2.53;;;;;;;33.17;45.35;94482.16;6303102;22;20172;-91
2023/08/14 14:44:35;;;;;;;3.28;2.20;;;;;;;33.32;44.95;94445.94;6302247;22;20283;-90
2023/08/14 14:47:01;;;;;;;4.03;2.25;;;;;;;33.25;44.26;94400.41;6302524;22;20520;-88
2023/08/14 14:49:28;;;;;;;2.47;2.28;;;;;;;33.22;44.36;94420.53;6302685;22;20188;-89
2023/08/14 14:51:54;;;;;;;2.50;2.30;;;;;;;33.18;44.13;94414.34;6302648;22;20167;-90